createdAt,value
2017-12-12T00:01:19.666Z,97953.76
2017-12-12T00:03:46.079Z,97952.95
2017-12-12T00:06:12.507Z,97945.44
2017-12-12T00:08:38.961Z,97959.15
2017-12-12T00:11:05.400Z,97972.30
2017-12-12T00:13:31.813Z,97969.49
2017-12-12T00:15:58.524Z,97966.95
2017-12-12T00:18:24.934Z,97964.54
2017-12-12T00:20:51.354Z,97975.28
2017-12-12T00:23:17.790Z,97990.60
2017-12-12T00:25:44.205Z,98000.55
2017-12-12T00:28:10.635Z,98011.70
2017-12-12T00:30:37.049Z,98012.23
2017-12-12T00:33:03.489Z,98028.64
2017-12-12T00:35:29.906Z,98032.94
2017-12-12T00:37:56.336Z,98043.69
2017-12-12T00:40:22.746Z,98029.99
2017-12-12T00:42:49.184Z,98047.86
2017-12-12T00:45:15.612Z,98048.40
2017-12-12T00:47:42.052Z,98047.73
2017-12-12T00:50:08.459Z,98056.47
2017-12-12T00:52:34.871Z,98064.80
2017-12-12T00:55:01.299Z,98065.61
2017-12-12T00:57:27.726Z,98089.13
2017-12-12T00:59:54.159Z,98093.95
2017-12-12T01:02:20.573Z,98122.16
2017-12-12T01:04:47.008Z,98133.86
2017-12-12T01:07:13.424Z,98135.46
2017-12-12T01:09:39.864Z,98162.60
2017-12-12T01:12:06.280Z,98169.73
2017-12-12T01:14:32.718Z,98169.59
2017-12-12T01:16:59.135Z,98181.55
2017-12-12T01:19:25.553Z,98187.73
2017-12-12T01:21:51.988Z,98200.89
2017-12-12T01:24:18.401Z,98190.82
2017-12-12T01:26:44.830Z,98217.95
2017-12-12T01:29:11.236Z,98224.41
2017-12-12T01:31:37.670Z,98233.80
2017-12-12T01:34:04.085Z,98246.70
2017-12-12T01:36:30.527Z,98245.23
2017-12-12T01:38:56.943Z,98268.19
2017-12-12T01:41:23.375Z,98277.46
2017-12-12T01:43:49.793Z,98290.36
2017-12-12T01:46:16.241Z,98308.09
2017-12-12T01:48:42.645Z,98331.32
2017-12-12T01:51:09.085Z,98350.27
2017-12-12T01:53:35.497Z,98361.81
2017-12-12T01:56:01.957Z,98367.86
2017-12-12T01:58:28.373Z,98372.70
2017-12-12T02:00:54.804Z,98388.67
2017-12-12T02:03:21.220Z,98399.95
2017-12-12T02:05:47.640Z,98409.09
2017-12-12T02:08:14.082Z,98422.52
2017-12-12T02:10:40.487Z,98430.71
2017-12-12T02:13:06.926Z,98449.38
2017-12-12T02:15:33.338Z,98447.90
2017-12-12T02:17:59.757Z,98455.29
2017-12-12T02:20:26.191Z,98469.11
2017-12-12T02:22:52.606Z,98489.53
2017-12-12T02:25:19.043Z,98490.61
2017-12-12T02:27:45.465Z,98504.57
2017-12-12T02:30:11.907Z,98526.59
2017-12-12T02:32:38.318Z,98529.95
2017-12-12T02:35:04.750Z,98553.19
2017-12-12T02:37:31.173Z,98571.58
2017-12-12T02:39:57.603Z,98584.08
2017-12-12T02:42:24.020Z,98601.67
2017-12-12T02:44:50.462Z,98587.02
2017-12-12T02:47:16.883Z,98603.41
2017-12-12T02:49:43.306Z,98604.06
2017-12-12T02:52:09.740Z,98620.59
2017-12-12T02:54:36.154Z,98625.55
2017-12-12T02:57:02.586Z,98639.12
2017-12-12T02:59:29.004Z,98660.88
2017-12-12T03:01:55.445Z,98661.54
2017-12-12T03:04:21.861Z,98663.02
2017-12-12T03:06:48.291Z,98666.77
2017-12-12T03:09:14.704Z,98675.09
2017-12-12T03:11:41.138Z,98687.17
2017-12-12T03:14:07.553Z,98692.14
2017-12-12T03:16:34.010Z,98701.13
2017-12-12T03:19:00.424Z,98705.70
2017-12-12T03:21:26.848Z,98721.41
2017-12-12T03:23:53.281Z,98726.50
2017-12-12T03:26:19.694Z,98739.93
2017-12-12T03:28:46.131Z,98759.67
2017-12-12T03:31:12.547Z,98780.87
2017-12-12T03:33:38.983Z,98784.23
2017-12-12T03:36:05.401Z,98793.37
2017-12-12T03:38:31.824Z,98809.74
2017-12-12T03:40:58.240Z,98808.67
2017-12-12T03:43:24.681Z,98821.95
2017-12-12T03:45:51.092Z,98816.58
2017-12-12T03:48:17.518Z,98826.23
2017-12-12T03:50:43.942Z,98825.42
2017-12-12T03:53:10.378Z,98843.41
2017-12-12T03:55:36.796Z,98848.51
2017-12-12T03:58:03.225Z,98843.82
2017-12-12T04:00:29.652Z,98856.28
2017-12-12T04:02:56.079Z,98849.70
2017-12-12T04:05:22.496Z,98863.66
2017-12-12T04:07:48.936Z,98882.73
2017-12-12T04:10:15.351Z,98887.98
2017-12-12T04:12:41.767Z,98896.29
2017-12-12T04:15:08.204Z,98905.16
2017-12-12T04:17:34.616Z,98906.47
2017-12-12T04:20:01.047Z,98912.38
2017-12-12T04:22:27.472Z,98921.78
2017-12-12T04:24:53.913Z,98929.02
2017-12-12T04:27:20.323Z,98949.16
2017-12-12T04:29:46.745Z,98943.20
2017-12-12T04:32:13.179Z,98956.63
2017-12-12T04:34:39.600Z,98965.62
2017-12-12T04:37:06.031Z,98981.45
2017-12-12T04:39:32.449Z,98984.80
2017-12-12T04:41:58.875Z,98990.81
2017-12-12T04:44:25.293Z,99001.44
2017-12-12T04:46:51.733Z,99006.80
2017-12-12T04:49:18.152Z,99006.52
2017-12-12T04:51:44.587Z,99022.11
2017-12-12T04:54:11.002Z,99030.44
2017-12-12T04:56:37.444Z,99029.75
2017-12-12T04:59:03.861Z,99057.70
2017-12-12T05:01:30.305Z,99059.20
2017-12-12T05:03:56.723Z,99072.63
2017-12-12T05:06:23.157Z,99085.06
2017-12-12T05:08:49.566Z,99090.59
2017-12-12T05:11:16.002Z,99102.18
2017-12-12T05:13:42.418Z,99106.66
2017-12-12T05:16:09.045Z,99125.77
2017-12-12T05:18:35.461Z,99134.68
2017-12-12T05:21:01.880Z,99150.58
2017-12-12T05:23:28.318Z,99157.62
2017-12-12T05:25:54.788Z,99163.19
2017-12-12T05:28:21.227Z,99169.69
2017-12-12T05:30:47.610Z,99182.38
2017-12-12T05:33:14.038Z,99182.58
2017-12-12T05:35:40.451Z,99204.80
2017-12-12T05:38:06.887Z,99207.27
2017-12-12T05:40:33.303Z,99216.47
2017-12-12T05:42:59.752Z,99222.16
2017-12-12T05:45:26.172Z,99233.23
2017-12-12T05:47:52.595Z,99238.92
2017-12-12T05:50:19.032Z,99249.06
2017-12-12T05:52:45.443Z,99262.91
2017-12-12T05:55:11.883Z,99267.52
2017-12-12T05:57:38.298Z,99268.77
2017-12-12T06:00:04.732Z,99285.06
2017-12-12T06:02:31.142Z,99289.12
2017-12-12T06:04:57.614Z,99305.83
2017-12-12T06:07:24.031Z,99317.27
2017-12-12T06:09:50.463Z,99329.00
2017-12-12T06:12:16.873Z,99344.36
2017-12-12T06:14:43.306Z,99346.93
2017-12-12T06:17:09.753Z,99346.69
2017-12-12T06:19:36.156Z,99356.38
2017-12-12T06:22:02.568Z,99371.86
2017-12-12T06:24:28.997Z,99375.37
2017-12-12T06:26:55.440Z,99374.84
2017-12-12T06:29:21.848Z,99378.34
2017-12-12T06:31:48.289Z,99389.38
2017-12-12T06:34:14.703Z,99384.94
2017-12-12T06:36:41.143Z,99391.66
2017-12-12T06:39:07.554Z,99409.97
2017-12-12T06:41:33.989Z,99422.48
2017-12-12T06:44:00.404Z,99436.34
2017-12-12T06:46:26.844Z,99444.41
2017-12-12T06:48:53.268Z,99450.59
2017-12-12T06:51:19.685Z,99463.64
2017-12-12T06:53:46.120Z,99462.95
2017-12-12T06:56:12.534Z,99461.36
2017-12-12T06:58:38.947Z,99474.92
2017-12-12T07:01:05.381Z,99478.55
2017-12-12T07:03:31.800Z,99478.97
2017-12-12T07:05:58.231Z,99478.97
2017-12-12T07:08:24.644Z,99489.31
2017-12-12T07:10:51.077Z,99505.86
2017-12-12T07:13:17.492Z,99516.91
2017-12-12T07:15:43.910Z,99528.73
2017-12-12T07:18:10.350Z,99528.84
2017-12-12T07:20:36.790Z,99534.11
2017-12-12T07:23:03.211Z,99540.95
2017-12-12T07:25:29.651Z,99546.05
2017-12-12T07:27:56.090Z,99552.08
2017-12-12T07:30:22.508Z,99551.67
2017-12-12T07:32:48.934Z,99561.20
2017-12-12T07:35:15.349Z,99567.64
2017-12-12T07:37:41.783Z,99579.63
2017-12-12T07:40:08.195Z,99589.98
2017-12-12T07:42:34.627Z,99595.36
2017-12-12T07:45:01.040Z,99591.44
2017-12-12T07:47:27.499Z,99583.78
2017-12-12T07:49:53.903Z,99600.33
2017-12-12T07:52:20.338Z,99602.89
2017-12-12T07:54:46.778Z,99601.67
2017-12-12T07:57:13.199Z,99608.56
2017-12-12T07:59:39.613Z,99613.53
2017-12-12T08:02:06.045Z,99624.34
2017-12-12T08:04:32.470Z,99627.03
2017-12-12T08:06:58.914Z,99642.11
2017-12-12T08:09:25.335Z,99638.37
2017-12-12T08:11:51.932Z,99646.31
2017-12-12T08:14:18.342Z,99650.11
2017-12-12T08:16:44.757Z,99656.59
2017-12-12T08:19:11.190Z,99664.98
2017-12-12T08:21:37.606Z,99676.04
2017-12-12T08:24:04.048Z,99686.15
2017-12-12T08:26:30.464Z,99694.92
2017-12-12T08:28:56.880Z,99703.69
2017-12-12T08:31:23.311Z,99717.02
2017-12-12T08:33:49.730Z,99719.59
2017-12-12T08:36:16.170Z,99731.70
2017-12-12T08:38:42.588Z,99735.09
2017-12-12T08:41:09.019Z,99734.68
2017-12-12T08:43:35.436Z,99740.18
2017-12-12T08:46:01.870Z,99744.38
2017-12-12T08:48:28.286Z,99747.89
2017-12-12T08:50:55.068Z,99742.63
2017-12-12T08:53:21.479Z,99740.76
2017-12-12T08:55:47.894Z,99743.04
2017-12-12T08:58:14.327Z,99743.45
2017-12-12T09:00:40.741Z,99745.73
2017-12-12T09:03:07.183Z,99754.73
2017-12-12T09:05:33.597Z,99749.06
2017-12-12T09:08:00.009Z,99754.45
2017-12-12T09:10:26.439Z,99761.30
2017-12-12T09:12:52.874Z,99765.33
2017-12-12T09:15:19.287Z,99767.50
2017-12-12T09:17:45.716Z,99772.34
2017-12-12T09:20:12.127Z,99768.95
2017-12-12T09:22:38.832Z,99780.13
2017-12-12T09:25:05.253Z,99795.05
2017-12-12T09:27:31.669Z,99796.51
2017-12-12T09:29:58.101Z,99803.53
2017-12-12T09:32:24.507Z,99800.84
2017-12-12T09:34:50.949Z,99816.28
2017-12-12T09:37:17.364Z,99822.48
2017-12-12T09:39:43.823Z,99823.53
2017-12-12T09:42:10.235Z,99827.05
2017-12-12T09:44:36.786Z,99824.88
2017-12-12T09:47:03.204Z,99831.08
2017-12-12T09:49:29.617Z,99838.86
2017-12-12T09:51:56.050Z,99838.74
2017-12-12T09:54:22.461Z,99837.92
2017-12-12T09:56:48.909Z,99846.28
2017-12-12T09:59:15.333Z,99850.03
2017-12-12T10:01:41.775Z,99858.11
2017-12-12T10:04:08.185Z,99862.96
2017-12-12T10:06:34.895Z,99866.17
2017-12-12T10:09:01.310Z,99870.21
2017-12-12T10:11:27.728Z,99876.00
2017-12-12T10:13:54.467Z,99885.02
2017-12-12T10:16:20.876Z,99880.56
2017-12-12T10:18:47.291Z,99900.51
2017-12-12T10:21:13.718Z,99898.23
2017-12-12T10:23:40.187Z,99902.27
2017-12-12T10:26:06.572Z,99902.79
2017-12-12T10:28:32.985Z,99910.63
2017-12-12T10:30:59.786Z,99922.09
2017-12-12T10:33:26.203Z,99916.30
2017-12-12T10:35:52.616Z,99927.36
2017-12-12T10:38:19.046Z,99937.59
2017-12-12T10:40:45.460Z,99933.03
2017-12-12T10:43:11.894Z,99932.21
2017-12-12T10:45:38.308Z,99942.86
2017-12-12T10:48:04.767Z,99946.78
2017-12-12T10:50:31.174Z,99946.78
2017-12-12T10:52:57.803Z,99957.55
2017-12-12T10:55:24.214Z,99966.44
2017-12-12T10:57:50.624Z,99972.52
2017-12-12T11:00:17.074Z,99973.87
2017-12-12T11:02:43.484Z,99972.81
2017-12-12T11:05:10.527Z,99975.62
2017-12-12T11:07:36.943Z,99971.12
2017-12-12T11:10:03.385Z,99971.58
2017-12-12T11:12:29.801Z,99982.34
2017-12-12T11:14:56.225Z,99980.24
2017-12-12T11:17:22.667Z,99979.48
2017-12-12T11:19:49.104Z,99981.23
2017-12-12T11:22:15.545Z,99982.34
2017-12-12T11:24:41.959Z,99976.84
2017-12-12T11:27:08.402Z,99978.78
2017-12-12T11:29:34.823Z,99982.81
2017-12-12T11:32:01.266Z,99987.38
2017-12-12T11:34:27.683Z,99991.30
2017-12-12T11:36:54.123Z,99987.20
2017-12-12T11:39:20.541Z,99991.66
2017-12-12T11:41:46.955Z,99995.80
2017-12-12T11:44:13.396Z,99995.40
2017-12-12T11:46:39.814Z,100005.75
2017-12-12T11:49:06.254Z,100009.91
2017-12-12T11:51:32.666Z,100008.03
2017-12-12T11:53:59.105Z,100010.84
2017-12-12T11:56:25.520Z,100008.56
2017-12-12T11:58:51.937Z,100014.23
2017-12-12T12:01:18.372Z,100004.52
2017-12-12T12:03:44.813Z,100011.66
2017-12-12T12:06:11.234Z,100013.42
2017-12-12T12:08:37.647Z,100016.11
2017-12-12T12:11:04.087Z,100017.05
2017-12-12T12:13:30.504Z,100014.23
2017-12-12T12:15:56.954Z,100023.66
2017-12-12T12:18:23.368Z,100023.02
2017-12-12T12:20:49.808Z,100023.02
2017-12-12T12:23:16.237Z,100027.47
2017-12-12T12:25:42.681Z,100032.96
2017-12-12T12:28:09.140Z,100042.80
2017-12-12T12:30:35.549Z,100050.87
2017-12-12T12:33:01.977Z,100045.37
2017-12-12T12:35:28.413Z,100058.42
2017-12-12T12:37:54.832Z,100045.89
2017-12-12T12:40:21.278Z,100048.59
2017-12-12T12:42:47.694Z,100051.16
2017-12-12T12:45:14.134Z,100047.23
2017-12-12T12:47:40.562Z,100049.93
2017-12-12T12:50:06.976Z,100065.14
2017-12-12T12:52:33.421Z,100064.33
2017-12-12T12:54:59.836Z,100063.39
2017-12-12T12:57:26.283Z,100076.44
2017-12-12T12:59:52.698Z,100078.60
2017-12-12T13:02:19.151Z,100085.74
2017-12-12T13:04:45.570Z,100090.60
2017-12-12T13:07:12.003Z,100093.41
2017-12-12T13:09:38.418Z,100092.88
2017-12-12T13:12:04.856Z,100091.42
2017-12-12T13:14:31.280Z,100095.58
2017-12-12T13:16:57.724Z,100094.75
2017-12-12T13:19:24.140Z,100106.64
2017-12-12T13:21:50.557Z,100106.75
2017-12-12T13:24:16.994Z,100106.75
2017-12-12T13:26:43.414Z,100109.44
2017-12-12T13:29:09.855Z,100119.69
2017-12-12T13:31:36.270Z,100120.33
2017-12-12T13:34:02.714Z,100126.12
2017-12-12T13:36:29.137Z,100126.94
2017-12-12T13:38:55.764Z,100132.85
2017-12-12T13:41:22.185Z,100140.62
2017-12-12T13:43:48.607Z,100139.17
2017-12-12T13:46:15.049Z,100149.52
2017-12-12T13:48:41.469Z,100144.66
2017-12-12T13:51:07.910Z,100147.36
2017-12-12T13:53:34.333Z,100151.80
2017-12-12T13:56:00.768Z,100146.53
2017-12-12T13:58:27.189Z,100142.20
2017-12-12T14:00:53.631Z,100143.02
2017-12-12T14:03:20.053Z,100150.98
2017-12-12T14:05:46.695Z,100160.00
2017-12-12T14:08:13.113Z,100166.31
2017-12-12T14:10:39.530Z,100168.48
2017-12-12T14:13:05.969Z,100179.66
2017-12-12T14:15:32.397Z,100187.21
2017-12-12T14:17:58.828Z,100194.94
2017-12-12T14:20:25.252Z,100204.77
2017-12-12T14:22:51.694Z,100200.44
2017-12-12T14:25:18.139Z,100211.20
2017-12-12T14:27:44.580Z,100212.96
2017-12-12T14:30:10.996Z,100215.36
2017-12-12T14:32:37.441Z,100223.02
2017-12-12T14:35:03.889Z,100229.75
2017-12-12T14:37:30.392Z,100232.03
2017-12-12T14:39:56.833Z,100240.52
2017-12-12T14:42:23.252Z,100243.73
2017-12-12T14:44:49.720Z,100233.50
2017-12-12T14:47:16.261Z,100239.81
2017-12-12T14:49:42.797Z,100244.67
2017-12-12T14:52:09.233Z,100250.47
2017-12-12T14:54:35.654Z,100255.44
2017-12-12T14:57:02.093Z,100261.76
2017-12-12T14:59:28.511Z,100272.12
2017-12-12T15:01:54.950Z,100272.12
2017-12-12T15:04:21.369Z,100274.39
2017-12-12T15:06:47.810Z,100290.84
2017-12-12T15:09:14.231Z,100288.98
2017-12-12T15:11:40.679Z,100297.98
2017-12-12T15:14:07.099Z,100303.78
2017-12-12T15:16:33.536Z,100303.25
2017-12-12T15:18:59.947Z,100309.05
2017-12-12T15:21:26.368Z,100313.61
2017-12-12T15:23:52.811Z,100306.06
2017-12-12T15:26:19.236Z,100314.14
2017-12-12T15:28:45.678Z,100316.72
2017-12-12T15:31:12.101Z,100322.63
2017-12-12T15:33:38.541Z,100336.80
2017-12-12T15:36:04.963Z,100333.28
2017-12-12T15:38:31.398Z,100335.15
2017-12-12T15:40:57.820Z,100345.91
2017-12-12T15:43:24.261Z,100352.23
2017-12-12T15:45:50.691Z,100353.47
2017-12-12T15:48:17.140Z,100360.72
2017-12-12T15:50:43.557Z,100361.43
2017-12-12T15:53:09.997Z,100367.34
2017-12-12T15:55:36.442Z,100357.51
2017-12-12T15:58:02.865Z,100363.83
2017-12-12T16:00:29.312Z,100356.27
2017-12-12T16:02:55.734Z,100359.48
2017-12-12T16:05:22.152Z,100361.36
2017-12-12T16:07:48.603Z,100368.38
2017-12-12T16:10:15.023Z,100374.59
2017-12-12T16:12:41.438Z,100379.16
2017-12-12T16:15:07.888Z,100383.19
2017-12-12T16:17:34.302Z,100373.77
2017-12-12T16:20:00.716Z,100378.22
2017-12-12T16:22:27.156Z,100379.45
2017-12-12T16:24:53.576Z,100382.25
2017-12-12T16:27:19.994Z,100383.90
2017-12-12T16:29:46.439Z,100388.47
2017-12-12T16:32:12.860Z,100397.89
2017-12-12T16:34:39.302Z,100405.55
2017-12-12T16:37:05.723Z,100410.00
2017-12-12T16:39:32.140Z,100415.80
2017-12-12T16:41:58.579Z,100415.80
2017-12-12T16:44:25.003Z,100423.45
2017-12-12T16:46:51.440Z,100424.39
2017-12-12T16:49:17.868Z,100431.13
2017-12-12T16:51:44.307Z,100432.58
2017-12-12T16:54:10.725Z,100435.27
2017-12-12T16:56:37.168Z,100435.27
2017-12-12T16:59:03.589Z,100437.14
2017-12-12T17:01:30.031Z,100439.31
2017-12-12T17:03:56.445Z,100449.14
2017-12-12T17:06:22.892Z,100443.34
2017-12-12T17:08:49.324Z,100452.36
2017-12-12T17:11:15.772Z,100450.19
2017-12-12T17:13:42.226Z,100455.58
2017-12-12T17:16:08.613Z,100457.33
2017-12-12T17:18:35.050Z,100459.61
2017-12-12T17:21:01.507Z,100460.36
2017-12-12T17:23:27.925Z,100462.11
2017-12-12T17:25:54.338Z,100467.09
2017-12-12T17:28:20.780Z,100468.13
2017-12-12T17:30:47.198Z,100462.75
2017-12-12T17:33:13.641Z,100468.13
2017-12-12T17:35:40.060Z,100477.97
2017-12-12T17:38:06.496Z,100483.88
2017-12-12T17:40:32.908Z,100487.50
2017-12-12T17:42:59.352Z,100488.95
2017-12-12T17:45:25.764Z,100497.03
2017-12-12T17:47:52.200Z,100504.28
2017-12-12T17:50:18.616Z,100511.95
2017-12-12T17:52:45.061Z,100504.59
2017-12-12T17:55:11.481Z,100506.86
2017-12-12T17:57:37.925Z,100511.42
2017-12-12T18:00:04.340Z,100515.46
2017-12-12T18:02:30.780Z,100516.81
2017-12-12T18:04:57.206Z,100523.53
2017-12-12T18:07:23.652Z,100522.72
2017-12-12T18:09:50.100Z,100532.02
2017-12-12T18:12:16.485Z,100532.84
2017-12-12T18:14:42.927Z,100534.20
2017-12-12T18:17:09.351Z,100533.67
2017-12-12T18:19:35.792Z,100537.71
2017-12-12T18:22:02.218Z,100533.27
2017-12-12T18:24:28.653Z,100537.71
2017-12-12T18:26:55.068Z,100545.78
2017-12-12T18:29:21.515Z,100547.24
2017-12-12T18:31:47.935Z,100558.83
2017-12-12T18:34:14.364Z,100556.55
2017-12-12T18:36:40.854Z,100565.04
2017-12-12T18:39:07.271Z,100562.23
2017-12-12T18:41:33.713Z,100568.03
2017-12-12T18:44:00.147Z,100574.77
2017-12-12T18:46:26.591Z,100575.59
2017-12-12T18:48:53.012Z,100580.45
2017-12-12T18:51:19.458Z,100593.39
2017-12-12T18:53:45.873Z,100598.25
2017-12-12T18:56:12.543Z,100600.12
2017-12-12T18:58:38.964Z,100597.84
2017-12-12T19:01:05.389Z,100587.07
2017-12-12T19:03:31.834Z,100592.34
2017-12-12T19:05:58.250Z,100594.21
2017-12-12T19:08:24.665Z,100594.21
2017-12-12T19:10:51.100Z,100594.10
2017-12-12T19:13:17.566Z,100603.94
2017-12-12T19:15:43.982Z,100609.32
2017-12-12T19:18:10.398Z,100616.55
2017-12-12T19:20:36.836Z,100630.17
2017-12-12T19:23:03.258Z,100630.26
2017-12-12T19:25:29.704Z,100636.97
2017-12-12T19:27:56.123Z,100633.94
2017-12-12T19:30:22.599Z,100640.45
2017-12-12T19:32:49.032Z,100643.45
2017-12-12T19:35:15.447Z,100645.73
2017-12-12T19:37:41.883Z,100648.64
2017-12-12T19:40:08.301Z,100656.53
2017-12-12T19:42:34.744Z,100660.56
2017-12-12T19:45:01.167Z,100655.07
2017-12-12T19:47:27.612Z,100657.16
2017-12-12T19:49:54.035Z,100662.84
2017-12-12T19:52:20.479Z,100662.30
2017-12-12T19:54:46.898Z,100664.77
2017-12-12T19:57:13.346Z,100670.87
2017-12-12T19:59:39.763Z,100681.63
2017-12-12T20:02:06.229Z,100682.86
2017-12-12T20:04:32.667Z,100677.55
2017-12-12T20:06:59.101Z,100677.66
2017-12-12T20:09:25.522Z,100678.76
2017-12-12T20:11:51.986Z,100672.47
2017-12-12T20:14:18.406Z,100681.67
2017-12-12T20:16:44.849Z,100679.28
2017-12-12T20:19:11.265Z,100680.13
2017-12-12T20:21:37.712Z,100682.83
2017-12-12T20:24:04.138Z,100691.53
2017-12-12T20:26:30.553Z,100687.61
2017-12-12T20:28:56.996Z,100690.81
2017-12-12T20:31:23.473Z,100700.05
2017-12-12T20:36:03.488Z,100695.48
2017-12-12T20:38:29.920Z,100700.53
2017-12-12T20:40:56.342Z,100696.11
2017-12-12T20:43:22.792Z,100701.36
2017-12-12T20:45:49.212Z,100711.91
2017-12-12T20:48:15.678Z,100708.20
2017-12-12T20:50:42.192Z,100703.72
2017-12-12T20:53:08.662Z,100701.55
2017-12-12T20:55:35.147Z,100711.58
2017-12-12T20:59:25.519Z,100706.34
2017-12-12T21:01:51.933Z,100709.32
2017-12-12T21:04:18.400Z,100709.86
2017-12-12T21:06:44.790Z,100709.78
2017-12-12T21:09:11.557Z,100710.19
2017-12-12T21:11:37.968Z,100712.17
2017-12-12T21:14:04.412Z,100709.58
2017-12-12T21:16:30.914Z,100714.66
2017-12-12T21:32:04.945Z,100713.28
2017-12-12T21:34:31.367Z,100714.66
2017-12-12T21:36:57.805Z,100715.80
2017-12-12T21:39:24.223Z,100724.50
2017-12-12T21:41:50.655Z,100731.00
2017-12-12T21:44:17.077Z,100728.94
2017-12-12T21:46:43.513Z,100727.08
2017-12-12T21:49:09.930Z,100730.41
2017-12-12T21:51:36.375Z,100730.20
2017-12-12T21:54:02.796Z,100733.22
2017-12-12T21:56:29.249Z,100729.39
2017-12-12T21:58:55.673Z,100727.84
2017-12-12T22:01:22.405Z,100732.81
2017-12-12T22:03:48.827Z,100736.55
2017-12-12T22:06:15.246Z,100733.14
2017-12-12T22:08:41.736Z,100730.14
2017-12-12T22:11:08.194Z,100731.29
2017-12-12T22:13:34.741Z,100730.16
2017-12-12T22:16:01.125Z,100720.02
2017-12-12T22:18:27.624Z,100727.78
2017-12-12T22:20:54.045Z,100728.10
2017-12-12T22:23:20.487Z,100722.01
2017-12-12T22:25:46.908Z,100727.39
2017-12-12T22:28:13.359Z,100716.02
2017-12-12T22:30:39.773Z,100727.19
2017-12-12T22:33:06.356Z,100726.47
2017-12-12T22:35:32.773Z,100727.51
2017-12-12T22:37:59.193Z,100735.37
2017-12-12T22:40:25.629Z,100737.13
2017-12-12T22:42:52.083Z,100746.90
2017-12-12T22:45:18.529Z,100739.87
2017-12-12T22:47:44.947Z,100740.49
2017-12-12T22:50:11.388Z,100749.70
2017-12-12T22:52:37.879Z,100750.84
2017-12-12T22:55:04.582Z,100752.71
2017-12-12T22:57:31.080Z,100754.58
2017-12-12T22:59:57.561Z,100765.85
2017-12-12T23:02:24.001Z,100770.51
2017-12-12T23:04:50.420Z,100765.65
2017-12-12T23:07:16.856Z,100763.48
2017-12-12T23:09:43.268Z,100764.31
2017-12-12T23:12:09.715Z,100763.48
2017-12-12T23:14:36.129Z,100772.59
2017-12-12T23:17:02.686Z,100764.11
2017-12-12T23:19:29.104Z,100761.73
2017-12-12T23:21:55.530Z,100757.70
2017-12-12T23:24:21.999Z,100761.02
2017-12-12T23:26:48.391Z,100756.37
2017-12-12T23:29:14.830Z,100759.58
2017-12-12T23:31:41.250Z,100767.64
2017-12-12T23:34:07.925Z,100762.99
2017-12-12T23:36:34.345Z,100767.23
2017-12-12T23:39:00.761Z,100768.58
2017-12-12T23:41:27.197Z,100768.58
2017-12-12T23:43:53.618Z,100762.79
2017-12-12T23:46:20.054Z,100755.23
2017-12-12T23:48:46.475Z,100761.76
2017-12-12T23:51:12.924Z,100751.11
2017-12-12T23:53:39.341Z,100753.38
2017-12-12T23:56:05.761Z,100742.02
2017-12-12T23:58:32.201Z,100751.53
